sensor_id;sensor_type;location;lat;lon;timestamp;P1;durP1;ratioP1;P2;durP2;ratioP2
65641;SDS011;52340;-6.720;108.544;2023-04-06T00:09:36;40.60;;;29.02;;
65641;SDS011;52340;-6.720;108.544;2023-04-06T00:24:41;45.33;;;34.22;;
65641;SDS011;52340;-6.720;108.544;2023-04-06T01:10:07;56.20;;;43.58;;
65641;SDS011;52340;-6.720;108.544;2023-04-06T02:33:13;25.93;;;16.17;;
65641;SDS011;52340;-6.720;108.544;2023-04-06T02:45:56;20.15;;;16.40;;
65641;SDS011;52340;-6.720;108.544;2023-04-06T02:49:10;20.55;;;16.52;;
65641;SDS011;52340;-6.720;108.544;2023-04-06T02:51:22;20.30;;;16.65;;
65641;SDS011;52340;-6.720;108.544;2023-04-06T02:57:01;33.10;;;28.05;;
65641;SDS011;52340;-6.720;108.544;2023-04-06T03:01:33;23.02;;;17.40;;
65641;SDS011;52340;-6.720;108.544;2023-04-06T03:28:47;21.83;;;16.67;;
65641;SDS011;52340;-6.720;108.544;2023-04-06T03:34:29;24.90;;;18.27;;
65641;SDS011;52340;-6.720;108.544;2023-04-06T03:35:31;22.73;;;18.02;;
65641;SDS011;52340;-6.720;108.544;2023-04-06T03:36:34;22.77;;;16.65;;
65641;SDS011;52340;-6.720;108.544;2023-04-06T03:41:06;20.60;;;15.82;;
65641;SDS011;52340;-6.720;108.544;2023-04-06T04:06:29;20.58;;;16.17;;
65641;SDS011;52340;-6.720;108.544;2023-04-06T04:07:31;20.67;;;16.77;;
65641;SDS011;52340;-6.720;108.544;2023-04-06T04:08:32;20.50;;;16.52;;
65641;SDS011;52340;-6.720;108.544;2023-04-06T04:09:34;20.05;;;15.38;;
65641;SDS011;52340;-6.720;108.544;2023-04-06T04:10:37;23.77;;;16.98;;
65641;SDS011;52340;-6.720;108.544;2023-04-06T04:11:39;21.30;;;16.20;;
65641;SDS011;52340;-6.720;108.544;2023-04-06T04:12:41;20.00;;;16.90;;
65641;SDS011;52340;-6.720;108.544;2023-04-06T04:13:42;20.55;;;16.70;;
65641;SDS011;52340;-6.720;108.544;2023-04-06T04:14:44;20.95;;;17.80;;
65641;SDS011;52340;-6.720;108.544;2023-04-06T04:15:46;20.35;;;17.20;;
65641;SDS011;52340;-6.720;108.544;2023-04-06T04:16:48;21.13;;;16.92;;
65641;SDS011;52340;-6.720;108.544;2023-04-06T04:17:50;23.02;;;18.15;;
65641;SDS011;52340;-6.720;108.544;2023-04-06T04:18:52;21.35;;;17.88;;
65641;SDS011;52340;-6.720;108.544;2023-04-06T04:19:55;19.88;;;16.90;;
65641;SDS011;52340;-6.720;108.544;2023-04-06T04:20:57;22.80;;;17.45;;
65641;SDS011;52340;-6.720;108.544;2023-04-06T04:22:01;23.08;;;17.80;;
65641;SDS011;52340;-6.720;108.544;2023-04-06T04:23:03;22.67;;;17.77;;
65641;SDS011;52340;-6.720;108.544;2023-04-06T04:24:05;23.70;;;18.75;;
65641;SDS011;52340;-6.720;108.544;2023-04-06T04:25:07;26.08;;;17.88;;
65641;SDS011;52340;-6.720;108.544;2023-04-06T04:26:10;19.85;;;17.30;;
65641;SDS011;52340;-6.720;108.544;2023-04-06T04:27:11;20.77;;;17.20;;
65641;SDS011;52340;-6.720;108.544;2023-04-06T04:28:14;20.98;;;17.10;;
65641;SDS011;52340;-6.720;108.544;2023-04-06T04:29:15;18.88;;;16.48;;
65641;SDS011;52340;-6.720;108.544;2023-04-06T04:30:18;20.23;;;16.70;;
65641;SDS011;52340;-6.720;108.544;2023-04-06T04:31:19;21.27;;;16.83;;
65641;SDS011;52340;-6.720;108.544;2023-04-06T04:32:21;20.55;;;16.80;;
65641;SDS011;52340;-6.720;108.544;2023-04-06T04:33:23;20.30;;;17.67;;
65641;SDS011;52340;-6.720;108.544;2023-04-06T04:34:25;22.58;;;17.45;;
65641;SDS011;52340;-6.720;108.544;2023-04-06T04:35:27;19.35;;;16.90;;
65641;SDS011;52340;-6.720;108.544;2023-04-06T04:36:29;18.58;;;16.15;;
65641;SDS011;52340;-6.720;108.544;2023-04-06T04:37:32;20.08;;;15.93;;
65641;SDS011;52340;-6.720;108.544;2023-04-06T04:38:34;22.92;;;17.73;;
65641;SDS011;52340;-6.720;108.544;2023-04-06T04:39:37;20.92;;;17.15;;
65641;SDS011;52340;-6.720;108.544;2023-04-06T04:40:38;21.73;;;15.70;;
65641;SDS011;52340;-6.720;108.544;2023-04-06T04:41:40;21.77;;;16.92;;
65641;SDS011;52340;-6.720;108.544;2023-04-06T04:42:43;19.23;;;15.15;;
65641;SDS011;52340;-6.720;108.544;2023-04-06T04:43:44;20.40;;;16.50;;
65641;SDS011;52340;-6.720;108.544;2023-04-06T04:44:46;20.63;;;16.05;;
65641;SDS011;52340;-6.720;108.544;2023-04-06T04:45:48;19.73;;;16.73;;
65641;SDS011;52340;-6.720;108.544;2023-04-06T04:46:50;19.95;;;16.25;;
65641;SDS011;52340;-6.720;108.544;2023-04-06T04:47:52;21.10;;;16.85;;
65641;SDS011;52340;-6.720;108.544;2023-04-06T04:48:53;20.52;;;16.75;;
65641;SDS011;52340;-6.720;108.544;2023-04-06T04:49:55;18.10;;;15.70;;
65641;SDS011;52340;-6.720;108.544;2023-04-06T04:50:57;19.75;;;15.73;;
65641;SDS011;52340;-6.720;108.544;2023-04-06T04:51:59;20.25;;;16.02;;
65641;SDS011;52340;-6.720;108.544;2023-04-06T04:53:03;21.33;;;16.45;;
65641;SDS011;52340;-6.720;108.544;2023-04-06T04:54:05;20.17;;;15.70;;
65641;SDS011;52340;-6.720;108.544;2023-04-06T04:55:07;21.02;;;15.13;;
65641;SDS011;52340;-6.720;108.544;2023-04-06T04:56:09;23.75;;;16.77;;
65641;SDS011;52340;-6.720;108.544;2023-04-06T04:57:10;20.27;;;16.67;;
65641;SDS011;52340;-6.720;108.544;2023-04-06T04:58:12;20.13;;;17.13;;
65641;SDS011;52340;-6.720;108.544;2023-04-06T04:59:14;21.48;;;17.25;;
65641;SDS011;52340;-6.720;108.544;2023-04-06T05:00:16;22.70;;;17.20;;
65641;SDS011;52340;-6.720;108.544;2023-04-06T05:01:18;21.63;;;17.08;;
65641;SDS011;52340;-6.720;108.544;2023-04-06T05:02:20;18.45;;;15.77;;
65641;SDS011;52340;-6.720;108.544;2023-04-06T05:03:22;17.52;;;15.48;;
65641;SDS011;52340;-6.720;108.544;2023-04-06T05:04:25;21.77;;;15.63;;
65641;SDS011;52340;-6.720;108.544;2023-04-06T05:05:27;23.58;;;16.60;;
65641;SDS011;52340;-6.720;108.544;2023-04-06T05:06:29;21.00;;;15.93;;
65641;SDS011;52340;-6.720;108.544;2023-04-06T05:07:31;20.75;;;16.33;;
65641;SDS011;52340;-6.720;108.544;2023-04-06T05:08:34;20.70;;;15.70;;
65641;SDS011;52340;-6.720;108.544;2023-04-06T05:09:36;22.75;;;16.48;;
65641;SDS011;52340;-6.720;108.544;2023-04-06T05:10:38;18.65;;;16.00;;
65641;SDS011;52340;-6.720;108.544;2023-04-06T05:11:39;19.38;;;16.50;;
65641;SDS011;52340;-6.720;108.544;2023-04-06T05:12:41;19.13;;;16.38;;
65641;SDS011;52340;-6.720;108.544;2023-04-06T05:13:43;21.50;;;16.67;;
65641;SDS011;52340;-6.720;108.544;2023-04-06T05:14:45;20.35;;;16.83;;
65641;SDS011;52340;-6.720;108.544;2023-04-06T05:15:47;19.95;;;16.95;;
65641;SDS011;52340;-6.720;108.544;2023-04-06T05:17:49;20.80;;;16.70;;
65641;SDS011;52340;-6.720;108.544;2023-04-06T05:18:52;20.85;;;16.00;;
65641;SDS011;52340;-6.720;108.544;2023-04-06T05:19:54;20.13;;;16.52;;
65641;SDS011;52340;-6.720;108.544;2023-04-06T05:20:56;18.63;;;15.57;;
65641;SDS011;52340;-6.720;108.544;2023-04-06T05:21:58;18.98;;;15.07;;
65641;SDS011;52340;-6.720;108.544;2023-04-06T05:23:00;19.33;;;15.65;;
65641;SDS011;52340;-6.720;108.544;2023-04-06T05:24:04;20.30;;;16.35;;
65641;SDS011;52340;-6.720;108.544;2023-04-06T05:25:06;19.67;;;15.93;;
65641;SDS011;52340;-6.720;108.544;2023-04-06T05:26:08;17.52;;;15.10;;
65641;SDS011;52340;-6.720;108.544;2023-04-06T05:27:10;20.65;;;16.40;;
65641;SDS011;52340;-6.720;108.544;2023-04-06T05:28:12;19.58;;;15.75;;
65641;SDS011;52340;-6.720;108.544;2023-04-06T05:29:13;21.02;;;16.05;;
65641;SDS011;52340;-6.720;108.544;2023-04-06T05:30:15;21.63;;;16.27;;
65641;SDS011;52340;-6.720;108.544;2023-04-06T05:31:17;19.98;;;15.55;;
65641;SDS011;52340;-6.720;108.544;2023-04-06T05:32:19;21.50;;;16.30;;
65641;SDS011;52340;-6.720;108.544;2023-04-06T05:33:21;20.50;;;16.52;;
65641;SDS011;52340;-6.720;108.544;2023-04-06T05:34:23;21.58;;;16.67;;
65641;SDS011;52340;-6.720;108.544;2023-04-06T05:35:25;20.38;;;16.25;;
65641;SDS011;52340;-6.720;108.544;2023-04-06T05:39:44;18.45;;;15.25;;
65641;SDS011;52340;-6.720;108.544;2023-04-06T05:40:46;20.27;;;15.63;;
65641;SDS011;52340;-6.720;108.544;2023-04-06T05:41:48;19.40;;;14.95;;
65641;SDS011;52340;-6.720;108.544;2023-04-06T05:42:53;18.23;;;15.23;;
65641;SDS011;52340;-6.720;108.544;2023-04-06T05:43:55;20.65;;;15.85;;
65641;SDS011;52340;-6.720;108.544;2023-04-06T05:46:01;18.20;;;15.23;;
65641;SDS011;52340;-6.720;108.544;2023-04-06T05:47:04;20.55;;;15.65;;
65641;SDS011;52340;-6.720;108.544;2023-04-06T05:48:06;19.05;;;15.05;;
65641;SDS011;52340;-6.720;108.544;2023-04-06T05:49:08;20.33;;;15.68;;
65641;SDS011;52340;-6.720;108.544;2023-04-06T05:50:10;18.70;;;15.50;;
65641;SDS011;52340;-6.720;108.544;2023-04-06T05:51:12;18.15;;;15.23;;
65641;SDS011;52340;-6.720;108.544;2023-04-06T05:52:14;18.98;;;14.15;;
65641;SDS011;52340;-6.720;108.544;2023-04-06T05:53:16;17.40;;;14.55;;
65641;SDS011;52340;-6.720;108.544;2023-04-06T05:54:21;18.67;;;14.65;;
65641;SDS011;52340;-6.720;108.544;2023-04-06T05:55:25;19.17;;;14.80;;
65641;SDS011;52340;-6.720;108.544;2023-04-06T05:56:27;17.45;;;14.25;;
65641;SDS011;52340;-6.720;108.544;2023-04-06T05:57:30;21.15;;;14.32;;
65641;SDS011;52340;-6.720;108.544;2023-04-06T05:59:42;20.00;;;13.50;;
65641;SDS011;52340;-6.720;108.544;2023-04-06T06:00:44;20.52;;;14.20;;
65641;SDS011;52340;-6.720;108.544;2023-04-06T06:01:46;19.27;;;14.57;;
65641;SDS011;52340;-6.720;108.544;2023-04-06T06:02:48;18.40;;;13.82;;
65641;SDS011;52340;-6.720;108.544;2023-04-06T06:03:50;18.67;;;14.50;;
65641;SDS011;52340;-6.720;108.544;2023-04-06T06:04:57;20.25;;;14.40;;
65641;SDS011;52340;-6.720;108.544;2023-04-06T06:06:00;17.65;;;14.70;;
65641;SDS011;52340;-6.720;108.544;2023-04-06T06:07:02;18.27;;;14.27;;
65641;SDS011;52340;-6.720;108.544;2023-04-06T06:08:04;17.23;;;14.57;;
65641;SDS011;52340;-6.720;108.544;2023-04-06T06:09:07;19.73;;;14.63;;
65641;SDS011;52340;-6.720;108.544;2023-04-06T06:12:19;18.75;;;14.25;;
65641;SDS011;52340;-6.720;108.544;2023-04-06T06:16:40;17.67;;;13.77;;
65641;SDS011;52340;-6.720;108.544;2023-04-06T06:17:43;17.80;;;13.27;;
65641;SDS011;52340;-6.720;108.544;2023-04-06T06:18:45;15.95;;;14.05;;
65641;SDS011;52340;-6.720;108.544;2023-04-06T06:21:55;16.38;;;13.20;;
65641;SDS011;52340;-6.720;108.544;2023-04-06T06:22:58;16.60;;;13.88;;
65641;SDS011;52340;-6.720;108.544;2023-04-06T06:24:00;18.70;;;13.50;;
65641;SDS011;52340;-6.720;108.544;2023-04-06T06:25:02;18.55;;;14.10;;
65641;SDS011;52340;-6.720;108.544;2023-04-06T06:26:04;19.33;;;13.60;;
65641;SDS011;52340;-6.720;108.544;2023-04-06T06:27:06;18.60;;;13.55;;
65641;SDS011;52340;-6.720;108.544;2023-04-06T06:28:09;16.25;;;13.15;;
65641;SDS011;52340;-6.720;108.544;2023-04-06T06:31:19;17.73;;;13.40;;
65641;SDS011;52340;-6.720;108.544;2023-04-06T06:40:29;17.98;;;14.23;;
65641;SDS011;52340;-6.720;108.544;2023-04-06T07:01:16;17.40;;;13.95;;
65641;SDS011;52340;-6.720;108.544;2023-04-06T07:04:36;19.33;;;14.07;;
65641;SDS011;52340;-6.720;108.544;2023-04-06T07:06:42;20.08;;;14.25;;
65641;SDS011;52340;-6.720;108.544;2023-04-06T07:08:52;21.40;;;16.65;;
65641;SDS011;52340;-6.720;108.544;2023-04-06T07:16:32;22.30;;;18.15;;
65641;SDS011;52340;-6.720;108.544;2023-04-06T07:21:56;22.10;;;17.67;;
65641;SDS011;52340;-6.720;108.544;2023-04-06T07:22:58;22.25;;;17.88;;
65641;SDS011;52340;-6.720;108.544;2023-04-06T07:24:00;23.15;;;18.58;;
65641;SDS011;52340;-6.720;108.544;2023-04-06T07:26:12;24.50;;;18.08;;
65641;SDS011;52340;-6.720;108.544;2023-04-06T07:29:32;23.83;;;18.48;;
65641;SDS011;52340;-6.720;108.544;2023-04-06T07:30:33;24.77;;;18.65;;
65641;SDS011;52340;-6.720;108.544;2023-04-06T07:32:39;23.38;;;18.23;;
65641;SDS011;52340;-6.720;108.544;2023-04-06T07:34:51;22.38;;;17.60;;
65641;SDS011;52340;-6.720;108.544;2023-04-06T07:35:52;26.37;;;18.30;;
65641;SDS011;52340;-6.720;108.544;2023-04-06T07:36:54;26.40;;;17.90;;
65641;SDS011;52340;-6.720;108.544;2023-04-06T07:41:20;27.08;;;19.75;;
65641;SDS011;52340;-6.720;108.544;2023-04-06T07:42:21;28.13;;;19.05;;
65641;SDS011;52340;-6.720;108.544;2023-04-06T07:44:24;27.95;;;20.15;;
65641;SDS011;52340;-6.720;108.544;2023-04-06T07:46:26;34.07;;;20.17;;
65641;SDS011;52340;-6.720;108.544;2023-04-06T07:47:28;31.73;;;20.75;;
65641;SDS011;52340;-6.720;108.544;2023-04-06T07:48:31;28.20;;;18.85;;
65641;SDS011;52340;-6.720;108.544;2023-04-06T07:49:33;32.55;;;24.00;;
65641;SDS011;52340;-6.720;108.544;2023-04-06T07:50:35;31.90;;;21.50;;
65641;SDS011;52340;-6.720;108.544;2023-04-06T07:51:37;31.60;;;21.08;;
65641;SDS011;52340;-6.720;108.544;2023-04-06T07:54:43;25.40;;;17.93;;
65641;SDS011;52340;-6.720;108.544;2023-04-06T07:55:45;27.48;;;20.50;;
65641;SDS011;52340;-6.720;108.544;2023-04-06T07:56:45;30.30;;;18.58;;
65641;SDS011;52340;-6.720;108.544;2023-04-06T07:57:47;27.80;;;19.85;;
65641;SDS011;52340;-6.720;108.544;2023-04-06T08:01:01;29.75;;;20.60;;
65641;SDS011;52340;-6.720;108.544;2023-04-06T08:02:03;29.45;;;20.92;;
65641;SDS011;52340;-6.720;108.544;2023-04-06T08:03:05;26.77;;;18.88;;
65641;SDS011;52340;-6.720;108.544;2023-04-06T08:04:09;26.40;;;20.15;;
65641;SDS011;52340;-6.720;108.544;2023-04-06T08:05:10;26.15;;;20.63;;
65641;SDS011;52340;-6.720;108.544;2023-04-06T08:06:12;25.42;;;19.98;;
65641;SDS011;52340;-6.720;108.544;2023-04-06T08:07:14;28.13;;;19.75;;
65641;SDS011;52340;-6.720;108.544;2023-04-06T08:08:16;23.98;;;19.05;;
65641;SDS011;52340;-6.720;108.544;2023-04-06T08:09:18;27.30;;;18.83;;
65641;SDS011;52340;-6.720;108.544;2023-04-06T08:12:24;21.80;;;17.37;;
65641;SDS011;52340;-6.720;108.544;2023-04-06T08:14:25;24.07;;;18.63;;
65641;SDS011;52340;-6.720;108.544;2023-04-06T08:16:31;24.08;;;17.90;;
65641;SDS011;52340;-6.720;108.544;2023-04-06T08:17:33;26.15;;;17.63;;
65641;SDS011;52340;-6.720;108.544;2023-04-06T08:18:35;21.27;;;16.48;;
65641;SDS011;52340;-6.720;108.544;2023-04-06T08:19:38;22.23;;;16.52;;
65641;SDS011;52340;-6.720;108.544;2023-04-06T08:20:40;20.83;;;16.33;;
65641;SDS011;52340;-6.720;108.544;2023-04-06T08:21:42;19.60;;;15.15;;
65641;SDS011;52340;-6.720;108.544;2023-04-06T08:24:52;21.70;;;16.38;;
65641;SDS011;52340;-6.720;108.544;2023-04-06T08:26:54;22.93;;;16.93;;
65641;SDS011;52340;-6.720;108.544;2023-04-06T08:32:00;18.90;;;15.27;;
65641;SDS011;52340;-6.720;108.544;2023-04-06T08:33:02;20.15;;;15.52;;
65641;SDS011;52340;-6.720;108.544;2023-04-06T08:37:16;23.58;;;16.05;;
65641;SDS011;52340;-6.720;108.544;2023-04-06T08:38:17;28.20;;;18.75;;
65641;SDS011;52340;-6.720;108.544;2023-04-06T08:39:19;24.73;;;16.58;;
65641;SDS011;52340;-6.720;108.544;2023-04-06T08:40:21;41.25;;;29.90;;
65641;SDS011;52340;-6.720;108.544;2023-04-06T08:41:23;60.92;;;42.40;;
65641;SDS011;52340;-6.720;108.544;2023-04-06T08:42:25;46.92;;;33.28;;
65641;SDS011;52340;-6.720;108.544;2023-04-06T08:43:27;37.47;;;27.30;;
65641;SDS011;52340;-6.720;108.544;2023-04-06T08:44:29;46.95;;;29.77;;
65641;SDS011;52340;-6.720;108.544;2023-04-06T08:45:32;42.80;;;29.40;;
65641;SDS011;52340;-6.720;108.544;2023-04-06T08:46:34;39.28;;;28.42;;
65641;SDS011;52340;-6.720;108.544;2023-04-06T08:47:36;44.50;;;31.05;;
65641;SDS011;52340;-6.720;108.544;2023-04-06T08:48:38;35.10;;;25.27;;
65641;SDS011;52340;-6.720;108.544;2023-04-06T08:49:40;34.83;;;24.70;;
65641;SDS011;52340;-6.720;108.544;2023-04-06T08:50:43;33.65;;;25.48;;
65641;SDS011;52340;-6.720;108.544;2023-04-06T08:51:45;34.17;;;25.23;;
65641;SDS011;52340;-6.720;108.544;2023-04-06T08:52:49;36.33;;;26.75;;
65641;SDS011;52340;-6.720;108.544;2023-04-06T08:53:51;33.63;;;25.20;;
65641;SDS011;52340;-6.720;108.544;2023-04-06T08:54:53;32.90;;;25.05;;
65641;SDS011;52340;-6.720;108.544;2023-04-06T08:55:55;33.05;;;24.98;;
65641;SDS011;52340;-6.720;108.544;2023-04-06T08:56:58;31.90;;;23.80;;
65641;SDS011;52340;-6.720;108.544;2023-04-06T08:58:00;31.25;;;22.90;;
65641;SDS011;52340;-6.720;108.544;2023-04-06T08:59:02;29.40;;;23.00;;
65641;SDS011;52340;-6.720;108.544;2023-04-06T09:00:04;29.42;;;21.38;;
65641;SDS011;52340;-6.720;108.544;2023-04-06T09:01:10;27.50;;;21.00;;
65641;SDS011;52340;-6.720;108.544;2023-04-06T09:02:14;31.88;;;24.27;;
65641;SDS011;52340;-6.720;108.544;2023-04-06T09:03:18;32.20;;;23.92;;
65641;SDS011;52340;-6.720;108.544;2023-04-06T09:04:20;28.10;;;21.45;;
65641;SDS011;52340;-6.720;108.544;2023-04-06T09:06:31;28.40;;;20.98;;
65641;SDS011;52340;-6.720;108.544;2023-04-06T09:07:33;24.92;;;18.67;;
65641;SDS011;52340;-6.720;108.544;2023-04-06T09:08:38;26.30;;;20.52;;
65641;SDS011;52340;-6.720;108.544;2023-04-06T09:09:40;25.02;;;18.42;;
65641;SDS011;52340;-6.720;108.544;2023-04-06T09:10:42;26.83;;;19.23;;
65641;SDS011;52340;-6.720;108.544;2023-04-06T09:11:45;24.20;;;18.52;;
65641;SDS011;52340;-6.720;108.544;2023-04-06T09:12:47;27.75;;;20.33;;
65641;SDS011;52340;-6.720;108.544;2023-04-06T09:13:50;24.33;;;18.70;;
65641;SDS011;52340;-6.720;108.544;2023-04-06T09:14:52;26.05;;;18.85;;
65641;SDS011;52340;-6.720;108.544;2023-04-06T09:16:00;26.58;;;18.65;;
65641;SDS011;52340;-6.720;108.544;2023-04-06T09:17:03;23.63;;;18.15;;
65641;SDS011;52340;-6.720;108.544;2023-04-06T09:18:05;28.13;;;20.02;;
65641;SDS011;52340;-6.720;108.544;2023-04-06T09:19:07;24.45;;;18.65;;
65641;SDS011;52340;-6.720;108.544;2023-04-06T09:20:09;26.33;;;19.92;;
65641;SDS011;52340;-6.720;108.544;2023-04-06T09:21:12;31.23;;;24.15;;
65641;SDS011;52340;-6.720;108.544;2023-04-06T09:22:17;36.08;;;26.05;;
65641;SDS011;52340;-6.720;108.544;2023-04-06T09:23:19;37.10;;;26.45;;
65641;SDS011;52340;-6.720;108.544;2023-04-06T09:24:22;38.47;;;27.35;;
65641;SDS011;52340;-6.720;108.544;2023-04-06T09:25:24;36.67;;;27.45;;
65641;SDS011;52340;-6.720;108.544;2023-04-06T09:26:26;32.05;;;23.98;;
65641;SDS011;52340;-6.720;108.544;2023-04-06T09:27:31;30.20;;;22.05;;
65641;SDS011;52340;-6.720;108.544;2023-04-06T09:28:46;29.83;;;20.70;;
65641;SDS011;52340;-6.720;108.544;2023-04-06T09:29:49;25.20;;;19.20;;
65641;SDS011;52340;-6.720;108.544;2023-04-06T09:30:50;27.55;;;19.67;;
65641;SDS011;52340;-6.720;108.544;2023-04-06T09:31:52;25.05;;;19.65;;
65641;SDS011;52340;-6.720;108.544;2023-04-06T09:33:03;25.08;;;19.30;;
65641;SDS011;52340;-6.720;108.544;2023-04-06T09:34:05;27.70;;;19.15;;
65641;SDS011;52340;-6.720;108.544;2023-04-06T09:35:07;25.05;;;18.95;;
65641;SDS011;52340;-6.720;108.544;2023-04-06T09:36:09;26.25;;;18.85;;
65641;SDS011;52340;-6.720;108.544;2023-04-06T09:37:14;26.40;;;19.38;;
65641;SDS011;52340;-6.720;108.544;2023-04-06T09:38:17;25.23;;;19.00;;
65641;SDS011;52340;-6.720;108.544;2023-04-06T09:40:28;26.00;;;19.40;;
65641;SDS011;52340;-6.720;108.544;2023-04-06T09:41:30;28.42;;;20.05;;
65641;SDS011;52340;-6.720;108.544;2023-04-06T09:43:32;25.07;;;19.50;;
65641;SDS011;52340;-6.720;108.544;2023-04-06T10:35:47;41.25;;;26.63;;
65641;SDS011;52340;-6.720;108.544;2023-04-06T10:39:09;38.80;;;25.85;;
65641;SDS011;52340;-6.720;108.544;2023-04-06T10:59:59;42.35;;;28.10;;
65641;SDS011;52340;-6.720;108.544;2023-04-06T13:53:23;21.30;;;9.45;;
65641;SDS011;52340;-6.720;108.544;2023-04-06T13:55:35;17.73;;;9.25;;
65641;SDS011;52340;-6.720;108.544;2023-04-06T14:28:05;31.58;;;16.15;;
65641;SDS011;52340;-6.720;108.544;2023-04-06T16:35:23;51.85;;;31.63;;
